Time;durP1;ratioP1;P1;durP2;ratioP2;P2;SDS_P1;SDS_P2;PMS_P1;PMS_P2;Temp;Humidity;BMP_temperature;BMP_pressure;BME280_temperature;BME280_humidity;BME280_pressure;Samples;Min_cycle;Max_cycle;Signal;HPM_P1;HPM_P2
2023/05/20 00:10:26;;;;;;;2.67;2.47;;;;;;;22.82;54.83;100725.84;39956677;29;20495;-77
2023/05/20 00:30:27;;;;;;;3.95;2.95;;;;;;;22.79;54.67;100701.47;39966365;29;20047;-76
2023/05/20 00:50:27;;;;;;;3.22;2.80;;;;;;;22.75;54.77;100708.81;39988178;29;20114;-76
2023/05/20 01:10:29;;;;;;;4.90;2.72;;;;;;;22.71;54.90;100702.09;39956355;29;20478;-77
2023/05/20 01:30:37;;;;;;;4.25;2.70;;;;;;;22.74;54.87;100714.22;39956386;29;20506;-77
2023/05/20 01:50:38;;;;;;;3.15;2.50;;;;;;;22.71;54.88;100728.50;39956617;29;20099;-77
2023/05/20 02:10:38;;;;;;;2.72;2.35;;;;;;;22.66;55.17;100734.13;39967473;29;20054;-77
2023/05/20 02:30:40;;;;;;;3.15;2.40;;;;;;;22.65;54.74;100739.53;39954706;29;20532;-76
2023/05/20 02:50:41;;;;;;;2.63;2.33;;;;;;;22.67;54.93;100735.00;39985529;29;20080;-76
2023/05/20 03:10:41;;;;;;;2.63;2.42;;;;;;;22.66;54.74;100742.06;39980617;29;20042;-77
2023/05/20 03:30:41;;;;;;;2.58;2.38;;;;;;;22.62;54.98;100751.19;39965622;29;20467;-77
2023/05/20 03:50:42;;;;;;;3.13;2.38;;;;;;;22.61;54.73;100760.06;39979014;29;20042;-75
2023/05/20 04:10:42;;;;;;;4.53;2.40;;;;;;;22.63;54.63;100770.47;39977031;29;20423;-77
2023/05/20 04:30:44;;;;;;;2.72;2.35;;;;;;;22.63;55.18;100788.97;39979990;29;20062;-76
2023/05/20 04:50:44;;;;;;;3.17;2.40;;;;;;;22.67;55.16;100785.16;39992005;29;20106;-78
2023/05/20 05:10:48;;;;;;;3.40;2.60;;;;;;;22.67;55.26;100785.97;39969669;29;20062;-86
2023/05/20 05:30:49;;;;;;;5.53;4.60;;;;;;;22.78;55.72;100790.41;39956860;29;20578;-78
2023/05/20 05:50:49;;;;;;;13.15;5.00;;;;;;;22.80;54.63;100799.06;39980460;29;20050;-80
2023/05/20 06:10:50;;;;;;;8.18;4.53;;;;;;;22.80;53.90;100796.44;39979289;29;20049;-79
2023/05/20 06:30:52;;;;;;;19.88;7.05;;;;;;;22.77;51.62;100795.81;39960881;29;20877;-82
2023/05/20 06:50:53;;;;;;;16.50;6.05;;;;;;;22.76;50.82;100787.06;39938034;29;20050;-93
2023/05/20 07:10:58;;;;;;;15.40;5.60;;;;;;;22.79;51.71;100784.19;39997045;29;20046;-87
2023/05/20 07:30:59;;;;;;;16.08;5.97;;;;;;;22.82;51.96;100762.81;39958567;29;20149;-81
2023/05/20 07:51:00;;;;;;;11.93;6.35;;;;;;;22.85;51.36;100772.28;39959555;29;20056;-79
2023/05/20 08:11:02;;;;;;;7.45;5.45;;;;;;;22.86;51.26;100761.63;39971765;29;20049;-82
2023/05/20 08:31:04;;;;;;;9.77;5.53;;;;;;;22.90;51.72;100740.25;39964919;29;20062;-81
2023/05/20 08:51:09;;;;;;;7.90;5.60;;;;;;;22.91;51.80;100724.28;39968790;29;20494;-80
2023/05/20 09:11:11;;;;;;;10.90;5.72;;;;;;;22.95;52.10;100716.94;39946546;29;20050;-76
2023/05/20 09:31:13;;;;;;;9.45;5.70;;;;;;;23.00;52.49;100705.06;39934755;29;20103;-77
2023/05/20 09:51:15;;;;;;;12.48;6.07;;;;;;;23.04;52.12;100666.03;39919011;29;20423;-77
2023/05/20 10:11:43;;;;;;;8.32;5.75;;;;;;;23.19;51.64;100656.03;39948262;29;20119;-78
2023/05/20 10:31:53;;;;;;;8.40;5.90;;;;;;;23.37;50.33;100629.09;39946686;29;20046;-75
2023/05/20 10:51:54;;;;;;;10.73;8.30;;;;;;;23.62;50.40;100607.56;39937476;29;20058;-77
2023/05/20 11:11:55;;;;;;;12.65;6.78;;;;;;;23.83;50.40;100606.72;39938575;29;20046;-76
2023/05/20 11:31:55;;;;;;;8.40;6.45;;;;;;;23.93;47.98;100588.28;39947914;29;20414;-75
2023/05/20 11:51:56;;;;;;;7.43;6.25;;;;;;;24.04;47.20;100580.25;39944462;29;20410;-74
2023/05/20 12:11:58;;;;;;;10.48;6.35;;;;;;;24.19;46.65;100564.00;39942910;29;20058;-71
2023/05/20 12:31:59;;;;;;;9.82;6.28;;;;;;;24.37;47.28;100550.97;39934870;29;20273;-74
2023/05/20 12:51:59;;;;;;;7.57;6.03;;;;;;;24.46;46.77;100543.06;39947124;29;20050;-74
2023/05/20 13:12:06;;;;;;;7.15;6.03;;;;;;;24.56;46.71;100523.69;39962065;29;20054;-74
2023/05/20 13:32:06;;;;;;;7.38;6.22;;;;;;;24.69;46.11;100497.81;39960976;29;20053;-75
2023/05/20 13:52:08;;;;;;;11.52;6.40;;;;;;;24.81;45.76;100492.38;39934161;29;20068;-73
2023/05/20 14:12:08;;;;;;;7.97;6.53;;;;;;;24.91;46.32;100487.91;39954210;29;20053;-77
2023/05/20 14:32:10;;;;;;;9.05;6.53;;;;;;;25.02;45.74;100465.72;39953099;29;20049;-76
2023/05/20 14:52:11;;;;;;;8.07;6.30;;;;;;;25.11;45.37;100448.97;39964060;29;20141;-75
2023/05/20 15:12:11;;;;;;;8.40;5.97;;;;;;;25.18;44.67;100452.72;39938557;29;20047;-74
2023/05/20 15:32:12;;;;;;;9.50;6.53;;;;;;;25.30;44.85;100428.69;39929767;29;20053;-79
2023/05/20 15:52:12;;;;;;;13.85;6.60;;;;;;;25.49;44.49;100415.38;39927554;29;21531;-77
2023/05/20 16:12:15;;;;;;;10.75;6.72;;;;;;;25.33;45.42;100417.78;39928341;29;20093;-75
2023/05/20 16:32:15;;;;;;;9.02;6.05;;;;;;;25.11;46.20;100411.88;39970300;29;20126;-74
2023/05/20 16:52:16;;;;;;;7.55;6.53;;;;;;;24.94;46.84;100418.75;39965431;29;20154;-74
2023/05/20 17:12:16;;;;;;;9.50;6.97;;;;;;;24.82;46.85;100420.72;39976954;29;20060;-75
2023/05/20 17:32:17;;;;;;;8.15;6.78;;;;;;;24.63;47.41;100429.50;39957864;29;20050;-74
2023/05/20 17:52:17;;;;;;;8.07;6.85;;;;;;;24.46;47.79;100426.59;39966184;29;20050;-74
2023/05/20 18:12:18;;;;;;;7.32;5.97;;;;;;;24.30;48.21;100419.22;39965343;29;20394;-75
2023/05/20 18:32:18;;;;;;;8.85;6.20;;;;;;;24.18;48.65;100430.91;39961185;29;20054;-74
2023/05/20 18:52:26;;;;;;;7.63;6.38;;;;;;;24.11;48.71;100443.81;39972044;29;20126;-75
2023/05/20 19:12:27;;;;;;;6.72;5.70;;;;;;;24.00;48.90;100451.88;39972303;29;20054;-74
2023/05/20 19:32:27;;;;;;;9.93;6.30;;;;;;;24.04;49.42;100463.84;39933311;29;20065;-74
2023/05/20 19:52:28;;;;;;;12.63;6.60;;;;;;;23.92;50.38;100468.41;39969488;29;20114;-74
2023/05/20 20:12:28;;;;;;;10.00;6.53;;;;;;;23.74;47.27;100477.94;39973963;29;20054;-76
2023/05/20 20:32:28;;;;;;;8.48;5.63;;;;;;;23.74;48.04;100459.44;39983183;29;20046;-76
2023/05/20 20:52:31;;;;;;;8.63;5.82;;;;;;;23.73;48.88;100458.59;39963058;29;20061;-75
2023/05/20 21:12:32;;;;;;;6.43;5.20;;;;;;;23.68;48.85;100455.53;39976488;29;20077;-74
2023/05/20 21:32:32;;;;;;;7.55;5.10;;;;;;;23.66;49.42;100460.09;39945515;29;20414;-77
2023/05/20 21:52:33;;;;;;;6.40;5.15;;;;;;;23.64;49.37;100447.03;39970249;29;20065;-77
2023/05/20 22:12:34;;;;;;;7.13;5.28;;;;;;;23.61;49.42;100442.00;39957286;29;20102;-77
2023/05/20 22:32:35;;;;;;;6.53;5.18;;;;;;;23.61;49.80;100457.03;39945558;29;20452;-76
2023/05/20 22:52:36;;;;;;;6.85;5.10;;;;;;;23.59;49.70;100465.06;39973108;29;20057;-75
2023/05/20 23:12:37;;;;;;;6.53;4.78;;;;;;;23.52;49.86;100465.75;39962229;29;20110;-75
2023/05/20 23:32:37;;;;;;;5.43;4.65;;;;;;;23.49;49.95;100466.84;39955671;29;20468;-76
2023/05/20 23:52:39;;;;;;;6.38;4.68;;;;;;;23.46;50.23;100444.16;39948290;29;20106;-76
